Flight Track Log - Related Links

Times and Time Zones

All times are in EDT time to prevent confusion due to time zone crossing. See the N6GD flight status page for this flight to view local times or setup timezone preferences in your user account.

Time Position Orientation Groundspeed Altitude Reporting Facility
EDT Latitude Longitude Course Direction KTS MPH feet Rate Location/Type
Sat 12:34:22 PM 25.8044 -80.2511 87° East 190 219 1,200  Level Miami Center
Sat 12:34:37 PM 25.8061 -80.2264 86° East 193 222 2,400 2,419 Climbing Miami Center
Sat 12:35:24 PM 25.8119 -80.1889 80° East 196 226 3,700 2,400 Climbing Miami Center
Sat 12:35:37 PM 25.8306 -80.1703 42° Northeast 230 265 4,800 2,806 Climbing Miami Center
Sat 12:36:26 PM 25.8733 -80.1953 332° Northwest 244 281 6,600 2,000 Climbing Miami Center
Sat 12:37:28 PM 25.9042 -80.2678 295° West 261 300 8,500 1,973 Climbing Miami Center
Sat 12:37:39 PM 25.9136 -80.2833 304° West 282 325 9,000 1,905 Climbing Miami Center
Sat 12:38:31 PM 25.9436 -80.3442 299° West 286 329 10,500 1,895 Climbing Miami Center
Sat 12:39:33 PM 25.9842 -80.4278 298° West 307 353 12,600 1,887 Climbing Miami Center
Sat 12:40:35 PM 26.0364 -80.5306 300° West 321 369 14,400 1,839 Climbing Miami Center
Sat 12:41:37 PM 26.0819 -80.6228 299° West 338 389 16,400 1,632 Climbing Miami Center
Sat 12:42:40 PM 26.1464 -80.6950 315° West 334 384 17,800 1,440 Climbing Miami Center
Sat 12:43:42 PM 26.2167 -80.7686 317° Northwest 343 395 19,400 1,355 Climbing Miami Center
Sat 12:44:44 PM 26.2911 -80.8425 318° Northwest 359 413 20,600 1,452 Climbing Miami Center
Sat 12:45:46 PM 26.3831 -80.9361 318° Northwest 370 426 22,400 1,488 Climbing Miami Center
Sat 12:46:49 PM 26.4611 -81.0167 317° Northwest 378 435 23,700 1,248 Climbing Miami Center
Sat 12:47:51 PM 26.5453 -81.1017 318° Northwest 382 440 25,000 1,258 Climbing Miami Center
Sat 12:48:53 PM 26.6292 -81.1881 317° Northwest 389 448 26,300 1,258 Climbing Miami Center
Sat 12:49:55 PM 26.7147 -81.2744 318° Northwest 392 451 27,600 1,104 Climbing Miami Center
Sat 12:50:58 PM 26.8000 -81.3631 317° Northwest 401 461 28,600 912 Climbing Miami Center
Sat 12:52:00 PM 26.8861 -81.4608 315° West 417 480 29,500 871 Climbing Miami Center
Sat 12:53:02 PM 26.9733 -81.5633 314° West 432 497 30,400 871 Climbing Miami Center
Sat 12:54:04 PM 27.0475 -81.6689 308° West 444 511 31,300 864 Climbing Miami Center
Sat 12:55:07 PM 27.0933 -81.8072 290° West 452 520 32,200 864 Climbing Miami Center
Sat 12:56:09 PM 27.1278 -81.9514 285° West 458 527 33,100 968 Climbing Miami Center
Sat 12:57:11 PM 27.1625 -82.0967 285° West 464 534 34,200 1,065 Climbing Miami Center
Sat 12:58:13 PM 27.1983 -82.2439 285° West 464 534 35,300 864 Climbing Miami Center
Sat 12:59:16 PM 27.2308 -82.3822 285° West 461 531 36,000 336 Climbing Miami Center
Sat 01:00:18 PM 27.2667 -82.5344 285° West 461 531 36,000  Level Miami Center
Sat 01:01:20 PM 27.3028 -82.6803 286° West 462 532 36,000  Level Miami Center
Sat 01:02:22 PM 27.3361 -82.8261 284° West 462 532 36,000  Level Miami Center
Sat 01:03:25 PM 27.3644 -82.9489 285° West 464 534 36,000 144 Level Miami Center
Sat 01:04:27 PM 27.3978 -83.0883 285° West 464 534 36,300 581 Climbing Miami Center
Sat 01:05:29 PM 27.4386 -83.2556 285° West 463 533 37,200 774 Climbing Miami Center
Sat 01:06:31 PM 27.4700 -83.3931 284° West 456 525 37,900 384 Climbing Miami Center
Sat 01:07:34 PM 27.5006 -83.5308 284° West 452 520 38,000  Climbing Miami Center
Sat 01:08:36 PM 27.5339 -83.6717 285° West 460 529 37,900  Descending Miami Center
Sat 01:09:38 PM 27.5650 -83.8086 284° West 456 525 38,000 48 Climbing Miami Center
Sat 01:10:41 PM 27.6025 -83.9744 284° West 454 522 38,000  Level Miami Center
Sat 01:11:43 PM 27.6339 -84.1117 285° West 454 522 38,000  Level Miami Center
Sat 01:12:45 PM 27.6642 -84.2483 284° West 451 519 38,000  Level Miami Center
Sat 01:13:47 PM 27.6942 -84.3864 284° West 452 520 38,000  Level Miami Center
Sat 01:14:27 PM 27.7103 -84.4794 281° West 453 521 38,000  Level Jacksonville Center
Sat 01:15:27 PM 27.7564 -84.6372 288° West 459 528 38,000  Level Jacksonville Center
Sat 01:16:27 PM 27.7772 -84.7758 280° West 453 521 38,000  Level Jacksonville Center
Sat 01:17:27 PM 27.8067 -84.9056 284° West 447 514 38,000  Level Jacksonville Center
Sat 01:18:27 PM 27.8378 -85.0422 284° West 456 525 38,000  Level Jacksonville Center
Sat 01:19:27 PM 27.8689 -85.1814 284° West 451 519 38,000  Level Jacksonville Center
Sat 01:20:27 PM 27.9017 -85.3253 284° West 457 526 38,000  Level Jacksonville Center
Sat 01:21:27 PM 27.9428 -85.4603 289° West 457 526 38,000  Level Jacksonville Center
Sat 01:22:27 PM 27.9839 -85.5881 290° West 457 526 38,000  Level Jacksonville Center
Sat 01:23:27 PM 28.0228 -85.7278 288° West 457 526 38,000  Level Jacksonville Center
Sat 01:24:27 PM 28.0636 -85.8583 290° West 457 526 38,000  Level Jacksonville Center
Sat 01:25:27 PM 28.1064 -85.9936 290° West 452 520 38,000  Level Jacksonville Center
Sat 01:26:27 PM 28.1447 -86.1289 288° West 452 520 38,000  Level Jacksonville Center
Sat 01:27:27 PM 28.1811 -86.2525 288° West 441 507 38,000  Level Jacksonville Center
Sat 01:28:27 PM 28.2214 -86.3833 289° West 441 507 38,000  Level Jacksonville Center
Sat 01:29:27 PM 28.2575 -86.5142 287° West 441 507 38,000  Level Jacksonville Center
Sat 01:30:27 PM 28.3017 -86.6500 290° West 447 514 38,000  Level Jacksonville Center
Sat 01:31:27 PM 28.3414 -86.7883 288° West 448 516 38,000  Level Jacksonville Center
Sat 01:32:27 PM 28.3769 -86.9172 287° West 448 516 38,000  Level Jacksonville Center
Sat 01:33:27 PM 28.4167 -87.0508 289° West 453 521 38,000  Level Jacksonville Center
Sat 01:34:25 PM 28.4533 -87.1778 288° West 448 516 38,000  Level Houston Center
Sat 01:35:27 PM 28.4928 -87.3139 288° West 453 521 38,000  Level Houston Center
Sat 01:36:30 PM 28.5319 -87.4481 288° West 453 521 38,000  Level Houston Center
Sat 01:37:32 PM 28.5694 -87.5839 287° West 452 520 38,000  Level Houston Center
Sat 01:38:34 PM 28.6086 -87.7181 288° West 451 519 38,000  Level Houston Center
Sat 01:39:36 PM 28.6469 -87.8531 288° West 451 519 38,000  Level Houston Center
Sat 01:40:38 PM 28.6922 -88.0144 288° West 449 517 38,000  Level Houston Center
Sat 01:41:40 PM 28.7292 -88.1447 288° West 446 513 38,000  Level Houston Center
Sat 01:42:42 PM 28.7664 -88.2789 288° West 446 513 38,000  Level Houston Center
Sat 01:43:44 PM 28.8039 -88.4119 288° West 444 511 38,000  Level Houston Center
Sat 01:44:46 PM 28.8411 -88.5464 288° West 444 511 38,000  Level Houston Center
Sat 01:45:48 PM 28.8942 -88.7033 291° West 445 512 38,000  Level Houston Center
Sat 01:46:50 PM 28.9686 -88.8161 307° West 446 513 38,000  Level Houston Center
Sat 01:47:53 PM 29.0500 -88.9214 312° West 445 512 38,000  Level Houston Center
Sat 01:48:55 PM 29.1294 -89.0292 310° West 445 512 38,000  Level Houston Center
Sat 01:49:57 PM 29.2069 -89.1411 308° West 447 514 38,000  Level Houston Center
Sat 01:50:59 PM 29.2794 -89.2578 305° West 448 516 38,000  Level Houston Center
Sat 01:52:01 PM 29.3542 -89.3733 307° West 448 516 38,000  Level Houston Center
Sat 01:53:03 PM 29.4417 -89.5133 306° West 450 518 38,000  Level Houston Center
Sat 01:54:05 PM 29.5147 -89.6308 306° West 450 518 38,000  Level Houston Center
Sat 01:55:07 PM 29.5883 -89.7483 306° West 450 518 38,000  Level Houston Center
Sat 01:56:09 PM 29.6617 -89.8667 306° West 451 519 38,000  Level Houston Center
Sat 01:57:11 PM 29.7358 -89.9850 306° West 453 521 38,000  Level Houston Center
Sat 01:58:13 PM 29.8094 -90.1039 306° West 456 525 38,000  Level Houston Center
Sat 01:59:15 PM 29.8986 -90.2475 306° West 456 525 38,000  Level Houston Center
Sat 02:00:17 PM 29.9733 -90.3672 306° West 456 525 38,000  Level Houston Center
Sat 02:01:19 PM 30.0464 -90.4864 305° West 456 525 38,000  Level Houston Center
Sat 02:02:21 PM 30.1211 -90.6053 306° West 456 525 38,000  Level Houston Center
Sat 02:03:23 PM 30.1931 -90.7239 305° West 455 524 38,000  Level Houston Center
Sat 02:04:25 PM 30.2667 -90.8411 306° West 453 521 38,000  Level Houston Center
Sat 02:05:27 PM 30.3383 -90.9606 305° West 453 521 38,000  Level Houston Center
Sat 02:06:29 PM 30.4239 -91.1036 305° West 452 520 38,000  Level Houston Center
Sat 02:07:31 PM 30.4967 -91.2228 305° West 452 520 38,000  Level Houston Center
Sat 02:08:33 PM 30.5703 -91.3433 305° West 453 521 38,000  Level Houston Center
Sat 02:09:36 PM 30.6361 -91.4564 304° West 453 521 38,000  Level Houston Center
Sat 02:10:38 PM 30.7222 -91.5994 305° West 453 521 38,000  Level Houston Center
Sat 02:11:40 PM 30.7933 -91.7203 304° West 453 521 38,000  Level Houston Center
Sat 02:12:42 PM 30.8656 -91.8406 305° West 453 521 38,000  Level Houston Center
Sat 02:13:44 PM 30.9383 -91.9603 305° West 453 521 38,000  Level Houston Center
Sat 02:14:46 PM 31.0122 -92.0864 304° West 453 521 38,000  Level Houston Center
Sat 02:15:48 PM 31.0833 -92.2072 305° West 452 520 38,000  Level Houston Center
Sat 02:16:51 PM 31.1531 -92.3256 305° West 447 514 38,000  Level Houston Center
Sat 02:17:53 PM 31.2372 -92.4683 305° West 444 511 38,000  Level Houston Center
Sat 02:18:55 PM 31.2939 -92.5975 297° West 443 510 38,000  Level Houston Center
Sat 02:19:57 PM 31.3439 -92.7303 294° West 443 510 38,000  Level Houston Center
Sat 02:20:59 PM 31.3931 -92.8606 294° West 443 510 38,000  Level Houston Center
Sat 02:22:01 PM 31.4428 -92.9922 294° West 443 510 38,000  Level Houston Center
Sat 02:23:03 PM 31.5003 -93.1492 293° West 440 506 38,000  Level Houston Center
Sat 02:24:06 PM 31.5481 -93.2778 294° West 437 503 38,000  Level Houston Center
Sat 02:25:08 PM 31.5989 -93.4161 293° West 434 499 38,000  Level Houston Center
Sat 02:26:10 PM 31.6461 -93.5447 293° West 431 496 38,000  Level Houston Center
Sat 02:27:12 PM 31.6917 -93.6689 293° West 430 495 38,000  Level Houston Center
Sat 02:28:14 PM 31.7378 -93.7947 293° West 427 491 38,000  Level Houston Center
Sat 02:29:16 PM 31.7689 -93.9264 286° West 422 486 38,000  Level Houston Center
Sat 02:30:18 PM 31.7964 -94.0658 283° West 425 489 38,000  Level Houston Center
Sat 02:31:21 PM 31.8272 -94.2278 283° West 433 498 38,000  Level Houston Center
Sat 02:32:23 PM 31.8542 -94.3672 283° West 438 504 38,000  Level Houston Center
Sat 02:33:25 PM 31.8817 -94.5047 283° West 437 503 38,000 -48 Level Houston Center
Sat 02:34:27 PM 31.9083 -94.6428 283° West 437 503 37,900 -919 Descending Houston Center
Sat 02:35:29 PM 31.9397 -94.8083 283° West 436 502 36,100 -1,544 Descending Houston Center
Sat 02:36:43 PM 31.9728 -94.9758 283° West 437 503 34,400 -1,368 Descending Fort Worth Center
Sat 02:37:45 PM 31.9972 -95.1083 282° West 422 486 33,000 -1,355 Descending Fort Worth Center
Sat 02:38:47 PM 32.0222 -95.2467 282° West 426 490 31,600 -1,355 Descending Fort Worth Center
Sat 02:39:49 PM 32.0472 -95.3833 282° West 426 490 30,200 -1,500 Descending Fort Worth Center
Sat 02:40:51 PM 32.0869 -95.5397 287° West 418 481 28,500 -1,597 Descending Fort Worth Center
Sat 02:41:53 PM 32.1511 -95.6481 305° West 419 482 26,900 -1,728 Descending Fort Worth Center
Sat 02:42:56 PM 32.2239 -95.7567 308° West 419 482 24,900 -1,920 Descending Fort Worth Center
Sat 02:43:58 PM 32.2933 -95.8694 306° West 422 486 22,900 -2,274 Descending Fort Worth Center
Sat 02:45:00 PM 32.3672 -95.9972 304° West 410 472 20,200 -2,806 Descending Fort Worth Center
Sat 02:46:02 PM 32.4294 -96.1042 305° West 397 457 17,100 -3,339 Descending Fort Worth Center
Sat 02:47:04 PM 32.4942 -96.2133 305° West 383 441 13,300 -3,339 Descending Fort Worth Center
Sat 02:48:06 PM 32.5533 -96.3175 304° West 382 440 10,200 -2,177 Descending Fort Worth Center
Sat 02:49:08 PM 32.6114 -96.4175 305° West 341 392 8,800 -1,210 Descending Fort Worth Center
Sat 02:50:10 PM 32.6719 -96.4764 321° Northwest 289 333 7,700 -1,452 Descending Fort Worth Center
Sat 02:51:12 PM 32.7594 -96.4950 350° North 297 342 5,800 -1,645 Descending Fort Worth Center
Sat 02:52:14 PM 32.8364 -96.5114 350° North 284 327 4,300 -871 Descending Fort Worth Center
Sat 02:53:16 PM 32.9106 -96.5281 349° North 276 318 4,000 -339 Descending Fort Worth Center
Sat 02:54:18 PM 32.9897 -96.5439 350° North 272 313 3,600 -677 Descending Fort Worth Center
Sat 02:55:20 PM 33.0669 -96.5483 357° North 267 307 2,600 -532 Descending Fort Worth Center
Sat 02:56:22 PM 33.1322 -96.5483 360° North 229 264 2,500 -290 Descending Fort Worth Center
Sat 02:57:24 PM 33.1881 -96.5394 North 203 234 2,000 -435 Descending Fort Worth Center
Sat 02:58:26 PM 33.2258 -96.5633 332° Northwest 161 185 1,600 -532 Descending Fort Worth Center
Sat 02:59:28 PM 33.1992 -96.5883 218° Southwest 131 151 900 -435 Descending Fort Worth Center
Sat 03:00:30 PM 33.1661 -96.5908 184° South 128 147 700 -194 Descending Fort Worth Center

Login

Don't have an account? Register now (free) for customized features, flight alerts, and more!